Time;durP1;ratioP1;P1;durP2;ratioP2;P2;SDS_P1;SDS_P2;PMS_P1;PMS_P2;Temp;Humidity;BMP_temperature;BMP_pressure;BME280_temperature;BME280_humidity;BME280_pressure;Samples;Min_cycle;Max_cycle;Signal;HPM_P1;HPM_P2
2023/03/04 00:01:53;;;;;;;23.80;15.10;;;;;;;-0.25;78.88;100059.73;108365;1304;22107;-88
2023/03/04 00:05:31;;;;;;;21.30;15.40;;;;;;;-0.23;78.93;100053.73;107570;1312;22171;-87
2023/03/04 00:09:06;;;;;;;23.40;15.00;;;;;;;-0.21;78.86;100052.25;107554;1312;22191;-87
2023/03/04 00:12:54;;;;;;;29.80;18.60;;;;;;;-0.16;78.88;100056.89;107265;1315;22182;-87
2023/03/04 00:17:07;;;;;;;;;;;;;;;;;;;;;
2023/03/04 00:21:09;;;;;;;22.80;15.60;;;;;;;-0.15;78.80;100050.53;106827;1321;22210;-91
2023/03/04 00:25:21;;;;;;;;;;;;;;;;;;;;;
2023/03/04 00:29:06;;;;;;;23.50;15.40;;;;;;;-0.12;78.79;100035.89;106629;1322;22441;-89
2023/03/04 00:36:49;;;;;;;26.80;16.00;;;;;;;-0.10;78.71;100018.45;105511;1337;22233;-86
2023/03/04 00:40:48;;;;;;;;;;;;;;;;;;;;;
2023/03/04 00:44:50;;;;;;;;;;;;;;;;;;;;;
2023/03/04 00:48:18;;;;;;;29.10;17.00;;;;;;;-0.05;78.83;99997.83;105860;1334;22200;-89
2023/03/04 00:55:00;;;;;;;26.30;16.80;;;;;;;0.03;78.93;99986.62;107718;1307;557673;-87
2023/03/04 00:59:02;;;;;;;24.40;14.40;;;;;;;0.04;78.66;99984.90;109274;1272;22557;-87
2023/03/04 01:02:51;;;;;;;19.60;11.10;;;;;;;0.01;78.68;99975.30;109555;1290;22096;-89
2023/03/04 01:06:53;;;;;;;28.00;16.00;;;;;;;-0.03;78.64;99962.73;108109;1297;7680447;-90
2023/03/04 01:11:02;;;;;;;22.80;13.10;;;;;;;-0.05;78.79;99957.66;107877;1304;22615;-89
2023/03/04 01:14:50;;;;;;;26.30;16.70;;;;;;;-0.03;78.84;99949.40;108371;1304;22460;-89
2023/03/04 01:18:42;;;;;;;28.60;16.80;;;;;;;-0.08;78.81;99946.50;107933;1308;22769;-89
2023/03/04 01:22:49;;;;;;;;;;;;;;;;;;;;;
2023/03/04 01:26:46;;;;;;;26.40;15.80;;;;;;;-0.13;78.55;99913.67;107509;1313;22216;-90
2023/03/04 01:30:23;;;;;;;27.70;16.00;;;;;;;-0.14;78.69;99893.02;107726;1309;22586;-89
2023/03/04 01:34:42;;;;;;;;;;;;;;;;;;;;;
2023/03/04 01:38:53;;;;;;;;;;;;;;;;;;;;;
2023/03/04 01:42:39;;;;;;;30.60;17.10;;;;;;;-0.22;78.80;99850.27;106814;1321;22195;-88
2023/03/04 01:46:42;;;;;;;30.10;17.90;;;;;;;-0.22;78.90;99845.73;107349;1315;22789;-90
2023/03/04 01:50:43;;;;;;;;;;;;;;;;;;;;;
2023/03/04 01:54:34;;;;;;;29.10;15.30;;;;;;;-0.19;79.22;99848.77;109585;1268;22531;-91
2023/03/04 01:58:46;;;;;;;28.20;17.00;;;;;;;-0.24;79.28;99831.66;108481;1293;22528;-89
2023/03/04 02:03:07;;;;;;;;;;;;;;;;;;;;;
2023/03/04 02:07:06;;;;;;;26.70;15.30;;;;;;;-0.23;79.22;99796.40;110183;1275;22248;-89
2023/03/04 02:11:22;;;;;;;;;;;;;;;;;;;;;
2023/03/04 02:15:09;;;;;;;23.40;13.70;;;;;;;-0.18;79.54;99820.40;109927;1287;22299;-88
2023/03/04 02:19:42;;;;;;;;;;;;;;;;;;;;;
2023/03/04 02:23:37;;;;;;;;;;;;;;;;;;;;;
2023/03/04 02:27:53;;;;;;;26.40;16.10;;;;;;;-0.13;79.60;99803.73;108121;1305;22594;-90
2023/03/04 02:31:54;;;;;;;;;;;;;;;;;;;;;
2023/03/04 02:36:18;;;;;;;;;;;;;;;;;;;;;
2023/03/04 02:40:00;;;;;;;26.90;16.10;;;;;;;-0.12;80.28;99813.64;106666;1327;22338;-90
2023/03/04 02:44:49;;;;;;;;;;;;;;;;;;;;;
2023/03/04 02:48:24;;;;;;;22.70;15.20;;;;;;;-0.02;80.34;99812.48;109676;1282;22501;-89
2023/03/04 02:51:57;;;;;;;26.40;17.10;;;;;;;0.01;80.35;99803.57;109816;1287;22196;-90
2023/03/04 02:55:51;;;;;;;31.60;17.90;;;;;;;0.04;80.40;99798.45;109753;1293;22277;-87
2023/03/04 02:59:22;;;;;;;23.80;15.70;;;;;;;0.07;80.31;99802.31;108960;1294;22214;-87
2023/03/04 03:02:51;;;;;;;26.20;16.30;;;;;;;0.10;80.39;99804.28;108362;1300;22486;-87
2023/03/04 03:06:21;;;;;;;30.90;18.20;;;;;;;0.13;80.42;99798.63;108693;1301;22673;-88
2023/03/04 03:10:17;;;;;;;29.10;17.60;;;;;;;0.13;80.38;99794.30;108072;1301;23784;-86
2023/03/04 03:13:36;;;;;;;31.30;19.20;;;;;;;0.14;80.42;99792.61;107639;1296;22563;-87
2023/03/04 03:17:24;;;;;;;27.60;18.00;;;;;;;0.19;80.33;99791.33;108878;1286;22531;-86
2023/03/04 03:20:36;;;;;;;29.80;17.40;;;;;;;0.21;80.29;99785.52;109862;1286;22148;-89
2023/03/04 03:23:40;;;;;;;27.10;16.60;;;;;;;0.27;80.22;99788.41;109828;1286;22731;-88
2023/03/04 03:27:29;;;;;;;24.70;16.80;;;;;;;0.28;80.00;99780.30;110085;1281;22161;-88
2023/03/04 03:31:14;;;;;;;29.80;18.00;;;;;;;0.31;79.88;99772.04;110157;1281;22223;-88
2023/03/04 03:35:27;;;;;;;32.10;18.80;;;;;;;0.35;79.83;99781.66;110140;1281;22803;-88
2023/03/04 03:39:15;;;;;;;27.50;17.30;;;;;;;0.43;79.98;99770.92;109817;1282;22821;-89
2023/03/04 03:43:08;;;;;;;24.60;16.30;;;;;;;0.44;79.52;99761.23;110081;1281;22171;-87
2023/03/04 03:46:56;;;;;;;27.00;17.60;;;;;;;0.46;79.52;99764.08;110013;1279;22267;-88
2023/03/04 03:50:46;;;;;;;29.70;18.70;;;;;;;0.46;79.54;99760.93;110077;1282;22424;-90
2023/03/04 03:54:16;;;;;;;29.10;17.10;;;;;;;0.51;79.45;99757.05;109713;1292;22174;-89
2023/03/04 03:57:25;;;;;;;22.00;14.50;;;;;;;0.53;79.40;99752.23;109325;1294;22145;-89
2023/03/04 04:00:56;;;;;;;28.60;18.90;;;;;;;0.54;79.41;99748.45;108893;1299;22298;-86
2023/03/04 04:04:46;;;;;;;28.70;17.90;;;;;;;0.55;79.31;99749.16;108807;1301;22377;-89
2023/03/04 04:08:35;;;;;;;28.40;18.20;;;;;;;0.59;79.32;99744.91;108645;1302;22670;-87
2023/03/04 04:17:14;;;;;;;;;;;;;;;;;;;;;
2023/03/04 04:21:03;;;;;;;26.10;16.90;;;;;;;0.75;78.94;99737.81;108973;1295;22034;-89
2023/03/04 04:25:12;;;;;;;;;;;;;;;;;;;;;
2023/03/04 04:29:10;;;;;;;28.70;16.30;;;;;;;0.74;78.64;99736.05;103010;1317;5451958;-90
2023/03/04 04:33:19;;;;;;;24.20;16.60;;;;;;;0.74;78.70;99734.84;106743;1324;22338;-88
2023/03/04 04:37:05;;;;;;;24.40;16.50;;;;;;;0.76;78.61;99732.80;106682;1324;22379;-89
2023/03/04 04:42:09;;;;;;;23.50;16.50;;;;;;;0.84;78.47;99730.52;106962;1315;557730;-89
2023/03/04 04:46:08;;;;;;;23.90;15.60;;;;;;;0.86;78.25;99724.33;109494;1290;22595;-88
2023/03/04 04:49:56;;;;;;;23.30;15.20;;;;;;;0.89;78.23;99725.95;108875;1296;22578;-88
2023/03/04 04:53:46;;;;;;;24.60;16.00;;;;;;;0.95;78.11;99727.63;109912;1285;22213;-90
2023/03/04 04:57:58;;;;;;;22.20;15.90;;;;;;;1.00;78.00;99726.84;106564;1281;22171;-89
2023/03/04 05:01:56;;;;;;;23.60;16.00;;;;;;;1.01;77.73;99720.78;109962;1281;22381;-88
2023/03/04 05:05:29;;;;;;;18.90;13.80;;;;;;;1.01;77.55;99725.80;110069;1282;22783;-87
2023/03/04 05:09:24;;;;;;;21.30;15.40;;;;;;;1.03;77.66;99719.26;109714;1286;22655;-89
2023/03/04 05:12:57;;;;;;;20.90;15.50;;;;;;;1.04;77.45;99711.48;109826;1289;22527;-87
2023/03/04 05:17:09;;;;;;;20.60;14.20;;;;;;;1.05;77.29;99711.49;109693;1267;22602;-88
2023/03/04 05:21:13;;;;;;;;;;;;;;;;;;;;;
2023/03/04 05:24:41;;;;;;;21.60;15.70;;;;;;;0.94;77.34;99707.48;109081;1296;22581;-88
2023/03/04 05:28:11;;;;;;;21.50;15.00;;;;;;;0.98;77.51;99704.77;109008;1292;22579;-88
2023/03/04 05:31:54;;;;;;;22.10;14.50;;;;;;;1.03;77.47;99695.68;109725;1289;22290;-88
2023/03/04 05:35:12;;;;;;;;;;;;;;;1.05;77.20;99700.58;109221;1296;22569;-85
2023/03/04 05:38:40;;;;;;;18.60;13.20;;;;;;;1.05;77.27;99695.89;109192;1295;22272;-88
2023/03/04 05:42:32;;;;;;;22.00;15.50;;;;;;;1.08;77.16;99702.20;109248;1294;22594;-85
2023/03/04 05:46:24;;;;;;;23.70;14.80;;;;;;;1.08;77.41;99701.52;108760;1296;22543;-87
2023/03/04 05:50:27;;;;;;;;;;;;;;;;;;;;;
2023/03/04 05:53:47;;;;;;;20.70;13.90;;;;;;;1.13;77.15;99692.91;108770;1296;22645;-86
2023/03/04 05:56:41;;;;;;;19.10;15.00;;;;;;;1.13;77.21;99695.52;108497;1296;22861;-86
2023/03/04 05:59:32;;;;;;;21.60;13.90;;;;;;;1.15;77.24;99688.27;107985;1298;22567;-84
2023/03/04 06:02:01;;;;;;;21.00;13.80;;;;;;;1.16;77.17;99681.87;107962;1294;22594;-84
2023/03/04 06:04:29;;;;;;;22.80;14.80;;;;;;;1.18;77.13;99674.27;108592;1294;22581;-85
2023/03/04 06:07:19;;;;;;;22.20;15.00;;;;;;;1.17;77.20;99671.31;107081;1297;25306;-89
2023/03/04 06:10:05;;;;;;;22.30;14.90;;;;;;;1.14;77.31;99675.58;106910;1305;25875;-86
2023/03/04 06:12:36;;;;;;;19.70;13.80;;;;;;;1.10;77.35;99669.46;106327;1298;24188;-87
2023/03/04 06:15:14;;;;;;;20.20;14.60;;;;;;;1.07;77.39;99662.46;108966;1296;22224;-85
2023/03/04 06:18:12;;;;;;;18.00;11.90;;;;;;;1.05;77.58;99664.67;108764;1300;22910;-85
2023/03/04 06:20:50;;;;;;;18.80;13.20;;;;;;;1.05;77.66;99657.74;108828;1300;22195;-86
2023/03/04 06:23:37;;;;;;;19.20;14.00;;;;;;;1.04;77.75;99660.67;109280;1292;22370;-86
2023/03/04 06:26:34;;;;;;;19.90;13.30;;;;;;;1.05;77.81;99655.65;109939;1287;22042;-86
2023/03/04 06:29:28;;;;;;;19.30;13.40;;;;;;;1.08;77.73;99656.60;110189;1281;22150;-87
2023/03/04 06:32:07;;;;;;;19.00;14.10;;;;;;;1.07;77.88;99658.83;109930;1285;22171;-86
2023/03/04 06:35:20;;;;;;;19.80;13.30;;;;;;;1.05;77.98;99658.25;110077;1279;22408;-87
2023/03/04 06:38:01;;;;;;;22.90;14.50;;;;;;;1.04;78.11;99657.38;110343;1269;22234;-87
2023/03/04 06:40:44;;;;;;;19.50;13.10;;;;;;;1.05;78.06;99658.27;110153;1279;22196;-86
2023/03/04 06:43:29;;;;;;;21.70;14.20;;;;;;;1.06;78.17;99660.88;110023;1282;22152;-87
2023/03/04 06:46:08;;;;;;;22.80;15.20;;;;;;;1.06;78.14;99662.44;110007;1284;22181;-86
2023/03/04 06:48:58;;;;;;;18.80;13.30;;;;;;;1.07;78.19;99661.77;109999;1280;22641;-86
2023/03/04 06:51:26;;;;;;;19.10;13.50;;;;;;;1.10;78.24;99661.31;109906;1286;22180;-86
2023/03/04 06:54:15;;;;;;;19.60;14.40;;;;;;;1.10;78.18;99655.57;109909;1284;22153;-85
2023/03/04 06:56:45;;;;;;;20.90;14.30;;;;;;;1.08;78.28;99662.67;109931;1286;22393;-87
2023/03/04 06:59:19;;;;;;;20.10;13.90;;;;;;;1.08;78.36;99665.95;109889;1286;22178;-85
2023/03/04 07:01:46;;;;;;;18.00;13.60;;;;;;;1.10;78.44;99660.61;110009;1280;22282;-87
2023/03/04 07:04:18;;;;;;;19.40;15.10;;;;;;;1.11;78.41;99658.20;109725;1286;22175;-82
2023/03/04 07:06:49;;;;;;;24.60;15.80;;;;;;;1.09;78.47;99651.91;109641;1286;22271;-86
2023/03/04 07:09:19;;;;;;;19.60;14.10;;;;;;;1.06;78.56;99665.05;109792;1283;22195;-87
2023/03/04 07:12:00;;;;;;;17.40;13.20;;;;;;;1.11;78.77;99665.14;110002;1282;22187;-86
2023/03/04 07:14:33;;;;;;;16.50;12.60;;;;;;;1.15;78.56;99663.64;109891;1288;22188;-85
2023/03/04 07:17:03;;;;;;;22.50;14.20;;;;;;;1.17;78.46;99664.55;109837;1288;22219;-88
2023/03/04 07:19:45;;;;;;;18.60;13.80;;;;;;;1.16;78.35;99659.85;109594;1292;22282;-86
2023/03/04 07:22:14;;;;;;;18.50;13.10;;;;;;;1.19;78.40;99656.95;109581;1292;22189;-87
2023/03/04 07:24:42;;;;;;;17.50;13.30;;;;;;;1.20;78.35;99659.74;109667;1292;22135;-86
2023/03/04 07:27:13;;;;;;;20.00;13.40;;;;;;;1.19;78.30;99663.72;108869;1297;22184;-85
2023/03/04 07:29:42;;;;;;;17.60;13.50;;;;;;;1.17;78.35;99658.83;108161;1304;22209;-85
2023/03/04 07:32:29;;;;;;;17.00;11.80;;;;;;;1.19;78.33;99653.14;108271;1302;22132;-87
2023/03/04 07:35:20;;;;;;;20.40;13.40;;;;;;;1.26;78.17;99652.20;108400;1302;22172;-87
2023/03/04 07:37:49;;;;;;;20.00;13.30;;;;;;;1.26;78.25;99653.41;108477;1301;22231;-87
2023/03/04 07:40:18;;;;;;;16.90;12.50;;;;;;;1.24;78.13;99645.75;107986;1305;22171;-86
2023/03/04 07:42:51;;;;;;;19.70;14.40;;;;;;;1.27;78.01;99641.11;107694;1310;22372;-85
2023/03/04 07:45:20;;;;;;;18.80;14.10;;;;;;;1.28;78.10;99640.79;107977;1306;22982;-86
2023/03/04 07:47:50;;;;;;;14.40;11.90;;;;;;;1.30;78.04;99648.45;107924;1299;22196;-86
2023/03/04 07:50:17;;;;;;;19.60;13.80;;;;;;;1.32;77.90;99636.70;107710;1304;22948;-85
2023/03/04 07:52:57;;;;;;;17.10;12.10;;;;;;;1.35;77.99;99635.70;108529;1300;22241;-86
2023/03/04 07:55:32;;;;;;;18.20;12.60;;;;;;;1.39;77.71;99626.91;109022;1295;22255;-85
2023/03/04 07:57:59;;;;;;;18.20;12.80;;;;;;;1.40;77.61;99629.00;108910;1291;22939;-84
2023/03/04 08:00:27;;;;;;;19.10;12.90;;;;;;;1.39;77.54;99626.74;109552;1282;23071;-87
2023/03/04 08:02:58;;;;;;;18.00;13.50;;;;;;;1.40;77.53;99619.11;109946;1282;22255;-86
2023/03/04 08:05:29;;;;;;;21.70;13.30;;;;;;;1.45;77.63;99624.75;109957;1278;22172;-84
2023/03/04 08:07:59;;;;;;;16.20;11.70;;;;;;;1.52;77.45;99616.52;109997;1275;22080;-86
2023/03/04 08:10:33;;;;;;;20.00;13.50;;;;;;;1.54;77.18;99617.25;109979;1282;23346;-84
2023/03/04 08:13:07;;;;;;;;;;;;;;;1.54;77.01;99617.77;109988;1282;23331;-85
2023/03/04 08:15:42;;;;;;;16.50;11.60;;;;;;;1.47;76.89;99616.45;110025;1272;22116;-88
2023/03/04 08:19:07;;;;;;;16.20;10.20;;;;;;;1.43;77.02;99611.54;110143;1281;22218;-86
2023/03/04 08:22:16;;;;;;;21.90;12.90;;;;;;;1.44;76.97;99610.00;109710;1289;22132;-86
2023/03/04 08:25:15;;;;;;;17.70;11.50;;;;;;;1.43;76.90;99609.63;109620;1290;22247;-86
2023/03/04 08:27:46;;;;;;;15.70;10.80;;;;;;;1.41;76.71;99608.55;109458;1287;22185;-86
2023/03/04 08:30:38;;;;;;;16.70;12.60;;;;;;;1.40;76.82;99611.48;109443;1290;22188;-88
2023/03/04 08:33:48;;;;;;;15.80;11.80;;;;;;;1.43;76.81;99601.66;109599;1290;22173;-89
2023/03/04 08:37:02;;;;;;;17.80;12.20;;;;;;;1.41;76.75;99602.13;109259;1294;22926;-88
2023/03/04 08:40:12;;;;;;;18.50;11.90;;;;;;;1.41;76.63;99602.29;109153;1295;22317;-88
2023/03/04 08:43:25;;;;;;;15.00;11.20;;;;;;;1.41;76.80;99606.83;109178;1295;22276;-88
2023/03/04 08:45:55;;;;;;;17.50;11.00;;;;;;;1.45;76.83;99601.52;109141;1295;22195;-88
2023/03/04 08:48:51;;;;;;;19.80;12.00;;;;;;;1.49;76.76;99603.28;109166;1280;23017;-88
2023/03/04 08:52:00;;;;;;;17.40;11.50;;;;;;;1.52;76.54;99607.84;109421;1293;22151;-86
2023/03/04 08:54:48;;;;;;;22.10;12.40;;;;;;;1.51;76.56;99604.55;108821;1293;22206;-85
2023/03/04 08:57:21;;;;;;;20.30;12.00;;;;;;;1.52;76.65;99601.09;109422;1286;22160;-86
2023/03/04 08:59:57;;;;;;;18.20;11.30;;;;;;;1.52;76.49;99597.95;109334;1290;22109;-88
2023/03/04 09:03:06;;;;;;;14.80;10.90;;;;;;;1.54;76.67;99599.20;109628;1284;22167;-87
2023/03/04 09:06:03;;;;;;;17.50;11.50;;;;;;;1.58;76.42;99585.73;109667;1284;22908;-86
2023/03/04 09:08:49;;;;;;;;;;;;;;;;;;;;;
2023/03/04 09:11:23;;;;;;;19.30;11.50;;;;;;;1.62;76.51;99584.91;109779;1291;22186;-88
2023/03/04 09:14:15;;;;;;;16.90;12.40;;;;;;;1.67;76.32;99585.84;109918;1284;22413;-88
2023/03/04 09:17:23;;;;;;;16.00;11.50;;;;;;;1.68;76.16;99574.92;109853;1281;22113;-86
2023/03/04 09:20:04;;;;;;;18.70;11.20;;;;;;;1.70;76.24;99573.56;110027;1281;22248;-87
2023/03/04 09:22:56;;;;;;;16.30;11.10;;;;;;;1.74;76.32;99571.20;109714;1279;22159;-87
2023/03/04 09:25:50;;;;;;;18.10;11.60;;;;;;;1.77;76.32;99572.10;109695;1287;22373;-87
2023/03/04 09:28:23;;;;;;;17.90;11.60;;;;;;;1.78;76.03;99577.50;109793;1287;22220;-85
2023/03/04 09:31:15;;;;;;;19.40;12.20;;;;;;;1.75;76.10;99579.20;109164;1289;23252;-84
2023/03/04 09:33:44;;;;;;;20.60;11.40;;;;;;;1.74;76.19;99573.80;108722;1299;22198;-88
2023/03/04 09:36:16;;;;;;;17.70;10.90;;;;;;;1.77;76.29;99578.17;108441;1292;22918;-87
2023/03/04 09:38:50;;;;;;;16.40;11.80;;;;;;;1.78;76.16;99574.38;108440;1300;23054;-84
2023/03/04 09:41:24;;;;;;;17.30;11.10;;;;;;;1.75;76.06;99573.13;108800;1296;22314;-86
2023/03/04 09:44:55;;;;;;;19.80;11.70;;;;;;;1.74;76.32;99569.29;108636;1299;22314;-87
2023/03/04 09:47:54;;;;;;;14.60;9.60;;;;;;;1.77;76.37;99566.02;108615;1289;22172;-85
2023/03/04 09:50:25;;;;;;;16.80;11.00;;;;;;;1.74;76.37;99562.52;108672;1297;22174;-82
2023/03/04 09:53:08;;;;;;;17.70;11.40;;;;;;;1.75;76.62;99563.75;109086;1293;22252;-81
2023/03/04 09:55:40;;;;;;;15.90;10.80;;;;;;;1.80;76.56;99558.08;109313;1293;22732;-83
2023/03/04 09:58:41;;;;;;;21.00;12.00;;;;;;;1.83;76.54;99556.03;108949;1293;22992;-81
2023/03/04 10:01:21;;;;;;;28.10;12.70;;;;;;;1.86;76.63;99548.27;109128;1288;22425;-81
2023/03/04 10:04:00;;;;;;;15.60;10.70;;;;;;;1.86;76.55;99560.92;109054;1292;22946;-82
2023/03/04 10:06:30;;;;;;;21.60;11.50;;;;;;;1.83;76.47;99552.39;108640;1286;22168;-81
2023/03/04 10:09:41;;;;;;;20.90;11.60;;;;;;;1.84;76.65;99548.93;109299;1286;22152;-82
2023/03/04 10:12:17;;;;;;;16.70;11.10;;;;;;;1.89;76.63;99542.03;109335;1292;22171;-83
2023/03/04 10:15:03;;;;;;;16.10;9.10;;;;;;;1.90;76.50;99543.09;109352;1286;22915;-81
2023/03/04 10:17:39;;;;;;;15.30;10.10;;;;;;;1.89;76.51;99539.42;109204;1286;22243;-83
2023/03/04 10:20:20;;;;;;;16.60;11.40;;;;;;;1.92;76.66;99536.52;109135;1291;22156;-81
2023/03/04 10:22:53;;;;;;;17.90;11.40;;;;;;;1.95;76.44;99532.40;109243;1287;22445;-86
2023/03/04 10:25:21;;;;;;;14.60;10.80;;;;;;;1.98;76.55;99528.79;109653;1287;22321;-82
2023/03/04 10:28:29;;;;;;;18.40;10.00;;;;;;;2.03;76.50;99532.84;109320;1287;22671;-85
2023/03/04 10:31:23;;;;;;;14.20;9.90;;;;;;;2.07;76.30;99527.33;108374;1294;22272;-85
2023/03/04 10:34:03;;;;;;;16.30;11.00;;;;;;;2.08;76.23;99522.83;108355;1302;22216;-83
2023/03/04 10:36:31;;;;;;;16.60;11.00;;;;;;;2.09;76.33;99512.92;108305;1302;22273;-85
2023/03/04 10:39:11;;;;;;;16.80;11.70;;;;;;;2.14;76.33;99523.23;108296;1302;22243;-85
2023/03/04 10:41:54;;;;;;;15.30;11.00;;;;;;;2.14;76.40;99508.48;108120;1283;22170;-85
2023/03/04 10:44:43;;;;;;;25.90;13.30;;;;;;;2.11;76.76;99504.95;108238;1302;22178;-85
2023/03/04 10:47:53;;;;;;;15.90;11.10;;;;;;;2.11;77.14;99504.27;108466;1302;22236;-86
2023/03/04 10:50:46;;;;;;;16.90;10.90;;;;;;;2.21;77.28;99501.95;108372;1302;22324;-80
2023/03/04 10:53:41;;;;;;;16.40;10.30;;;;;;;2.25;77.36;99500.23;108508;1299;22231;-85
2023/03/04 10:56:54;;;;;;;20.40;11.50;;;;;;;2.27;77.63;99500.45;109040;1295;22187;-85
2023/03/04 11:00:30;;;;;;;21.60;11.20;;;;;;;2.27;77.72;99497.83;109464;1289;22642;-84
2023/03/04 11:03:21;;;;;;;16.90;11.10;;;;;;;2.25;77.83;99495.20;108686;1299;22259;-85
2023/03/04 11:06:21;;;;;;;18.60;9.60;;;;;;;2.20;78.27;99497.42;108775;1299;22343;-84
2023/03/04 11:08:59;;;;;;;18.80;10.50;;;;;;;2.15;78.41;99491.80;109293;1289;22227;-87
2023/03/04 11:11:41;;;;;;;16.20;10.70;;;;;;;2.15;78.76;99488.16;109516;1292;22155;-84
2023/03/04 11:14:21;;;;;;;20.50;12.10;;;;;;;2.18;79.06;99489.05;109564;1292;22165;-84
2023/03/04 11:17:02;;;;;;;19.70;11.30;;;;;;;2.18;78.93;99488.38;109679;1290;22368;-82
2023/03/04 11:19:39;;;;;;;15.50;11.20;;;;;;;2.16;79.13;99489.04;108925;1280;22239;-83
2023/03/04 11:22:06;;;;;;;18.00;11.80;;;;;;;2.16;79.46;99489.04;109525;1292;22167;-84
2023/03/04 11:24:36;;;;;;;18.00;11.30;;;;;;;2.16;79.68;99485.40;109076;1297;22171;-83
2023/03/04 11:27:31;;;;;;;20.60;12.80;;;;;;;2.18;79.72;99483.49;109171;1296;22272;-84
2023/03/04 11:30:25;;;;;;;;;;;;;;;2.19;79.84;99477.44;108462;1303;22563;-85
2023/03/04 11:33:09;;;;;;;17.60;9.60;;;;;;;2.19;80.01;99476.73;108328;1303;22284;-83
2023/03/04 11:36:31;;;;;;;18.00;8.50;;;;;;;2.21;80.07;99465.64;108477;1299;22215;-83
2023/03/04 11:39:12;;;;;;;15.60;10.10;;;;;;;2.26;80.09;99475.59;108343;1304;22246;-82
2023/03/04 11:41:51;;;;;;;12.30;9.10;;;;;;;2.30;80.19;99466.41;107906;1304;22149;-86
2023/03/04 11:44:24;;;;;;;13.70;9.60;;;;;;;2.32;80.11;99468.34;107969;1304;22278;-85
2023/03/04 11:47:30;;;;;;;15.30;9.80;;;;;;;2.37;80.27;99464.40;108037;1304;23022;-85
2023/03/04 11:50:04;;;;;;;15.00;9.70;;;;;;;2.42;80.39;99464.27;109489;1292;22192;-84
2023/03/04 11:52:37;;;;;;;12.80;9.00;;;;;;;2.42;80.31;99464.44;109604;1293;22217;-82
2023/03/04 11:55:55;;;;;;;12.20;8.70;;;;;;;2.46;80.34;99469.52;109714;1293;22411;-83
2023/03/04 11:58:57;;;;;;;11.70;8.40;;;;;;;2.55;80.38;99460.90;109678;1295;22159;-83
2023/03/04 12:02:02;;;;;;;12.90;9.20;;;;;;;2.59;80.31;99456.59;109449;1295;22160;-83
2023/03/04 12:04:43;;;;;;;17.20;9.50;;;;;;;2.60;80.29;99465.98;109498;1295;22176;-84
2023/03/04 12:07:30;;;;;;;14.30;8.00;;;;;;;2.59;80.23;99467.73;109037;1296;22973;-86
2023/03/04 12:10:38;;;;;;;13.40;9.20;;;;;;;2.59;80.29;99467.20;108773;1298;22222;-84
2023/03/04 12:13:43;;;;;;;13.90;9.30;;;;;;;2.60;80.23;99466.16;108572;1299;22333;-86
2023/03/04 12:16:43;;;;;;;12.10;8.70;;;;;;;2.60;80.56;99461.64;108835;1295;22210;-85
2023/03/04 12:20:07;;;;;;;15.40;8.90;;;;;;;2.56;80.27;99465.60;108752;1299;22159;-86
2023/03/04 12:23:00;;;;;;;16.50;9.20;;;;;;;2.57;80.46;99472.40;107416;1311;22213;-81
2023/03/04 12:26:15;;;;;;;14.10;9.70;;;;;;;2.58;80.61;99477.80;106843;1317;22231;-85
2023/03/04 12:29:54;;;;;;;15.60;9.20;;;;;;;2.54;80.69;99471.15;106994;1315;22228;-86
2023/03/04 12:32:57;;;;;;;14.80;9.80;;;;;;;2.54;80.92;99464.71;107037;1314;23013;-83
2023/03/04 12:35:40;;;;;;;16.70;10.00;;;;;;;2.61;80.88;99468.27;106788;1319;22270;-85
2023/03/04 12:38:31;;;;;;;12.20;7.60;;;;;;;2.68;80.92;99459.80;106991;1313;22437;-85
2023/03/04 12:41:35;;;;;;;12.00;8.50;;;;;;;2.78;81.27;99454.48;107123;1314;22285;-90
2023/03/04 12:44:23;;;;;;;13.10;8.40;;;;;;;2.88;80.75;99458.38;107218;1298;22164;-86
2023/03/04 12:47:12;;;;;;;;;;;;;;;2.92;80.54;99450.41;107247;1307;23012;-83
2023/03/04 12:50:18;;;;;;;;;;;;;;;3.01;80.27;99453.08;107522;1301;23172;-85
2023/03/04 12:53:21;;;;;;;12.40;7.40;;;;;;;3.03;79.89;99459.36;107528;1304;22908;-85
2023/03/04 12:55:57;;;;;;;9.60;7.00;;;;;;;3.12;79.81;99453.67;107980;1284;22334;-87
2023/03/04 12:58:31;;;;;;;12.10;8.00;;;;;;;3.20;79.46;99449.73;108316;1292;22229;-83
2023/03/04 13:01:38;;;;;;;10.10;8.00;;;;;;;3.22;79.08;99447.98;109499;1282;22294;-86
2023/03/04 13:04:35;;;;;;;10.50;7.10;;;;;;;3.24;78.83;99443.65;109711;1288;22190;-86
2023/03/04 13:07:57;;;;;;;13.50;8.20;;;;;;;3.32;78.84;99444.03;109796;1285;22229;-83
2023/03/04 13:10:27;;;;;;;10.30;8.10;;;;;;;3.49;78.57;99443.42;109294;1288;22202;-85
2023/03/04 13:13:01;;;;;;;10.60;7.70;;;;;;;3.73;78.52;99437.77;109610;1281;22265;-83
2023/03/04 13:15:36;;;;;;;8.60;6.80;;;;;;;3.96;77.80;99435.92;109815;1288;22197;-84
2023/03/04 13:18:34;;;;;;;10.40;6.80;;;;;;;4.06;77.05;99432.45;109680;1288;22280;-87
2023/03/04 13:21:25;;;;;;;10.30;7.80;;;;;;;4.05;76.11;99431.59;109617;1284;22488;-86
2023/03/04 13:24:49;;;;;;;10.20;7.30;;;;;;;4.01;75.82;99437.15;109330;1293;22254;-86
2023/03/04 13:28:02;;;;;;;9.70;7.10;;;;;;;4.00;75.81;99437.15;109165;1293;22167;-85
2023/03/04 13:30:54;;;;;;;10.30;6.70;;;;;;;3.98;75.45;99436.45;108807;1297;22155;-86
2023/03/04 13:33:43;;;;;;;7.90;6.60;;;;;;;3.92;75.49;99444.45;108923;1298;22177;-86
2023/03/04 13:37:04;;;;;;;3.90;2.70;;;;;;;3.74;74.77;99483.23;108751;1301;22206;-88
2023/03/04 13:40:41;;;;;;;1.60;1.50;;;;;;;3.22;74.49;99492.02;107934;1308;22202;-86
2023/03/04 13:43:28;;;;;;;3.10;2.00;;;;;;;2.44;76.18;99487.05;107669;1312;22206;-84
2023/03/04 13:46:22;;;;;;;2.20;1.80;;;;;;;2.04;77.35;99485.25;107743;1306;22077;-89
2023/03/04 13:48:50;;;;;;;4.10;1.90;;;;;;;1.68;79.13;99478.77;108258;1306;22155;-86
2023/03/04 13:51:43;;;;;;;6.10;2.40;;;;;;;1.51;78.50;99478.38;108176;1299;22823;-84
2023/03/04 13:54:28;;;;;;;3.90;2.20;;;;;;;1.44;78.43;99462.50;108351;1301;22538;-85
2023/03/04 13:57:19;;;;;;;3.60;1.90;;;;;;;1.43;78.12;99452.42;108325;1301;22180;-86
2023/03/04 13:59:54;;;;;;;3.10;2.10;;;;;;;1.44;77.94;99443.41;107945;1302;22366;-85
2023/03/04 14:02:25;;;;;;;2.20;1.90;;;;;;;1.48;77.76;99441.39;107443;1312;22249;-85
2023/03/04 14:05:15;;;;;;;4.50;2.20;;;;;;;1.55;77.31;99438.52;107870;1306;22970;-83
2023/03/04 14:07:46;;;;;;;4.00;2.50;;;;;;;1.76;76.97;99433.02;107653;1310;22422;-84
2023/03/04 14:10:23;;;;;;;6.20;2.60;;;;;;;1.97;76.46;99433.09;107765;1308;22227;-86
2023/03/04 14:12:59;;;;;;;2.90;2.20;;;;;;;2.21;75.73;99438.18;107610;1310;22261;-85
2023/03/04 14:15:30;;;;;;;5.40;2.70;;;;;;;2.44;74.89;99444.12;107636;1305;22935;-86
2023/03/04 14:18:01;;;;;;;4.70;2.90;;;;;;;2.63;74.50;99440.11;107398;1312;22183;-85
2023/03/04 14:20:48;;;;;;;5.20;2.40;;;;;;;2.80;73.99;99437.45;107598;1307;22056;-85
2023/03/04 14:23:35;;;;;;;3.20;2.40;;;;;;;2.97;73.47;99440.70;107636;1310;22287;-83
2023/03/04 14:26:20;;;;;;;3.70;2.30;;;;;;;3.10;72.60;99442.69;107542;1305;22215;-88
2023/03/04 14:30:02;;;;;;;4.90;2.60;;;;;;;3.16;71.25;99434.89;108224;1298;22310;-85
2023/03/04 14:32:32;;;;;;;3.50;2.70;;;;;;;3.20;69.96;99441.38;107954;1306;22185;-87
2023/03/04 14:35:17;;;;;;;4.30;2.70;;;;;;;3.28;70.04;99446.98;107471;1304;22370;-86
2023/03/04 14:38:04;;;;;;;4.50;2.80;;;;;;;3.37;69.53;99449.28;108181;1302;22159;-86
2023/03/04 14:40:47;;;;;;;5.90;2.90;;;;;;;3.48;68.82;99453.86;108401;1295;22194;-83
2023/03/04 14:43:27;;;;;;;5.10;2.80;;;;;;;3.54;68.27;99451.11;109145;1293;22643;-86
2023/03/04 14:45:59;;;;;;;4.70;2.60;;;;;;;3.62;68.44;99454.62;109423;1280;22232;-84
2023/03/04 14:48:32;;;;;;;5.30;3.20;;;;;;;3.72;67.52;99457.27;109527;1289;22145;-88
2023/03/04 14:51:01;;;;;;;4.80;2.70;;;;;;;3.80;67.26;99456.25;109529;1289;22158;-86
2023/03/04 14:53:32;;;;;;;3.50;2.10;;;;;;;3.75;64.63;99461.98;109688;1288;22248;-83
2023/03/04 14:56:17;;;;;;;5.40;3.10;;;;;;;3.60;64.10;99457.05;109509;1289;22907;-85
2023/03/04 14:58:56;;;;;;;7.20;2.90;;;;;;;3.46;64.02;99460.98;109719;1281;22828;-84
2023/03/04 15:01:46;;;;;;;4.90;2.30;;;;;;;3.36;64.13;99464.08;109667;1286;22314;-85
2023/03/04 15:04:18;;;;;;;5.10;2.70;;;;;;;3.29;63.40;99461.77;109758;1281;23001;-83
2023/03/04 15:06:52;;;;;;;4.80;2.60;;;;;;;3.21;62.29;99467.13;109729;1286;22377;-84